Time;durP1;ratioP1;P1;durP2;ratioP2;P2;SDS_P1;SDS_P2;PMS_P1;PMS_P2;Temp;Humidity;BMP_temperature;BMP_pressure;BME280_temperature;BME280_humidity;BME280_pressure;Samples;Min_cycle;Max_cycle;Signal;HPM_P1;HPM_P2
2022/11/12 00:01:13;;;;;;;8.77;4.22;;;5.00;99.90;;;;;;5044069;28;20021;-80
2022/11/12 00:03:39;;;;;;;11.25;4.28;;;5.00;99.90;;;;;;5061942;28;20044;-80
2022/11/12 00:06:04;;;;;;;10.68;5.25;;;4.90;99.90;;;;;;5044355;28;20111;-80
2022/11/12 00:08:30;;;;;;;8.98;4.70;;;4.90;99.90;;;;;;5062578;28;20032;-80
2022/11/12 00:10:55;;;;;;;9.27;4.75;;;4.80;99.90;;;;;;5062456;28;20094;-80
2022/11/12 00:13:21;;;;;;;9.20;4.45;;;4.80;99.90;;;;;;5043623;28;20017;-80
2022/11/12 00:15:46;;;;;;;8.93;4.60;;;4.80;99.90;;;;;;5044588;28;20017;-80
2022/11/12 00:18:12;;;;;;;11.23;4.28;;;4.70;99.90;;;;;;5063205;28;20021;-80
2022/11/12 00:20:38;;;;;;;13.00;4.47;;;4.80;99.90;;;;;;5043454;28;20017;-80
2022/11/12 00:23:04;;;;;;;10.57;4.30;;;;;;;;;;5044500;28;20024;-80
2022/11/12 00:25:29;;;;;;;7.28;4.07;;;4.80;99.90;;;;;;5058310;28;20033;-78
2022/11/12 00:28:03;;;;;;;10.00;4.63;;;4.80;99.90;;;;;;5037728;28;20040;-78
2022/11/12 00:30:29;;;;;;;10.68;4.75;;;4.70;99.90;;;;;;5055523;28;20041;-79
2022/11/12 00:32:54;;;;;;;10.52;4.70;;;4.70;99.90;;;;;;5055607;28;20071;-78
2022/11/12 00:35:20;;;;;;;10.68;4.65;;;4.60;99.90;;;;;;5055627;28;20017;-78
2022/11/12 00:37:45;;;;;;;7.93;4.22;;;4.70;99.90;;;;;;5037912;28;20017;-78
2022/11/12 00:40:11;;;;;;;11.15;4.68;;;4.70;99.90;;;;;;5058200;28;20472;-79
2022/11/12 00:42:37;;;;;;;10.32;4.85;;;4.60;99.90;;;;;;5043464;28;20028;-79
2022/11/12 00:45:03;;;;;;;9.52;4.97;;;4.60;99.90;;;;;;5060060;28;20044;-78
2022/11/12 00:47:28;;;;;;;8.75;4.25;;;4.60;99.90;;;;;;5040882;28;20421;-79
2022/11/12 00:49:54;;;;;;;9.90;4.68;;;4.60;99.90;;;;;;5058812;28;20472;-78
2022/11/12 00:52:19;;;;;;;8.25;4.05;;;4.60;99.90;;;;;;5060060;28;20514;-79
2022/11/12 00:54:45;;;;;;;10.27;4.25;;;6.20;99.90;;;;;;5040879;28;20021;-79
2022/11/12 00:57:10;;;;;;;9.88;4.70;;;4.50;99.90;;;;;;5041467;28;20435;-80
2022/11/12 00:59:36;;;;;;;9.27;4.47;;;4.50;99.90;;;;;;5059983;28;20028;-80
2022/11/12 01:02:01;;;;;;;12.15;4.85;;;4.50;99.90;;;;;;5061165;28;20380;-79
2022/11/12 01:04:27;;;;;;;11.82;4.10;;;4.40;99.90;;;;;;5041775;28;20032;-80
2022/11/12 01:06:52;;;;;;;12.93;4.95;;;4.30;99.90;;;;;;5043233;28;20021;-80
2022/11/12 01:09:18;;;;;;;12.65;5.18;;;;;;;;;;5043134;28;20074;-80
2022/11/12 01:11:44;;;;;;;9.43;4.40;;;4.30;99.90;;;;;;5059945;28;20391;-79
2022/11/12 01:14:09;;;;;;;10.02;4.85;;;4.40;99.90;;;;;;5059738;28;20052;-79
2022/11/12 01:16:38;;;;;;;7.88;4.00;;;4.30;99.90;;;;;;5060167;28;20037;-79
2022/11/12 01:19:06;;;;;;;9.40;4.57;;;4.40;99.90;;;;;;5041400;28;20021;-79
2022/11/12 01:21:36;;;;;;;11.13;5.10;;;4.40;99.90;;;;;;5041701;28;20028;-78
2022/11/12 01:24:01;;;;;;;10.25;5.25;;;4.40;99.90;;;;;;5058987;28;20036;-79
2022/11/12 01:26:27;;;;;;;15.25;5.25;;;4.40;99.90;;;;;;5042551;28;20041;-79
2022/11/12 01:28:53;;;;;;;12.85;6.03;;;4.40;99.90;;;;;;5041584;28;20021;-79
2022/11/12 01:31:22;;;;;;;11.65;5.90;;;4.40;99.90;;;;;;5060408;28;20033;-79
2022/11/12 01:33:53;;;;;;;13.27;6.38;;;4.70;99.90;;;;;;5060277;28;20017;-79
2022/11/12 01:36:19;;;;;;;13.77;5.90;;;4.50;99.90;;;;;;5041255;28;20108;-79
2022/11/12 01:38:46;;;;;;;16.58;6.20;;;4.50;99.90;;;;;;5055640;28;20028;-78
2022/11/12 01:41:19;;;;;;;13.70;5.88;;;4.60;99.90;;;;;;5060016;28;20032;-79
2022/11/12 01:43:44;;;;;;;11.18;5.22;;;4.60;99.90;;;;;;5059992;28;20395;-79
2022/11/12 01:46:19;;;;;;;17.08;5.78;;;4.60;99.90;;;;;;5041568;28;20036;-79
2022/11/12 01:49:00;;;;;;;16.77;6.57;;;4.60;99.90;;;;;;5059332;28;20025;-79
2022/11/12 01:54:57;;;;;;;13.15;6.20;;;4.80;99.90;;;;;;5844985;22;20132;-74
2022/11/12 01:57:28;;;;;;;14.60;7.45;;;4.80;99.90;;;;;;5036648;28;20036;-75
2022/11/12 01:59:59;;;;;;;12.77;6.50;;;4.90;99.90;;;;;;5054465;28;20059;-74
2022/11/12 02:02:26;;;;;;;16.88;7.72;;;4.90;99.90;;;;;;5054407;28;20447;-75
2022/11/12 02:04:54;;;;;;;16.15;7.22;;;5.00;99.90;;;;;;5054464;28;20438;-75
2022/11/12 02:07:22;;;;;;;10.23;5.70;;;5.10;99.90;;;;;;5036468;28;20517;-74
2022/11/12 02:09:47;;;;;;;13.82;7.05;;;5.20;99.90;;;;;;5054315;28;20025;-74
2022/11/12 02:13:56;;;;;;;15.27;7.13;;;5.30;99.90;;;;;;5054086;28;20058;-75
2022/11/12 02:14:59;;;;;;;12.07;6.43;;;5.40;99.90;;;;;;5053805;28;20071;-75
2022/11/12 02:17:26;;;;;;;14.18;6.78;;;5.40;99.90;;;;;;5054607;28;20021;-74
2022/11/12 02:19:52;;;;;;;12.85;6.60;;;5.50;99.90;;;;;;5054866;28;20072;-75
2022/11/12 02:22:17;;;;;;;14.20;7.18;;;5.60;99.90;;;;;;5054162;28;20029;-74
2022/11/12 02:24:43;;;;;;;12.80;6.90;;;6.10;99.90;;;;;;5036254;28;20407;-76
2022/11/12 02:27:10;;;;;;;16.52;6.63;;;5.70;99.90;;;;;;5036315;28;20051;-74
2022/11/12 02:29:45;;;;;;;14.45;6.93;;;5.80;99.90;;;;;;5054079;28;20028;-74
2022/11/12 02:32:11;;;;;;;16.92;7.30;;;5.90;99.90;;;;;;5036157;28;20021;-76
2022/11/12 02:34:38;;;;;;;15.32;7.72;;;5.90;99.90;;;;;;5054075;28;20023;-76
2022/11/12 02:37:04;;;;;;;15.80;7.82;;;6.00;99.90;;;;;;5053971;28;20475;-76
2022/11/12 02:39:30;;;;;;;14.60;7.80;;;6.10;99.90;;;;;;5054175;28;20518;-76
2022/11/12 02:41:55;;;;;;;18.60;7.72;;;6.20;99.90;;;;;;5053954;28;20021;-76
2022/11/12 02:44:21;;;;;;;15.88;7.78;;;6.20;99.90;;;;;;5053838;28;20044;-76
2022/11/12 02:46:49;;;;;;;16.45;7.35;;;6.30;99.90;;;;;;5053900;28;20025;-76
2022/11/12 02:49:15;;;;;;;14.23;7.93;;;6.30;99.90;;;;;;5035921;28;20024;-76
2022/11/12 02:51:40;;;;;;;15.55;8.38;;;6.40;99.90;;;;;;5019367;28;20035;-76
2022/11/12 02:54:06;;;;;;;18.60;8.07;;;6.40;99.90;;;;;;5054001;28;20024;-76
2022/11/12 02:56:32;;;;;;;18.60;8.02;;;6.50;99.90;;;;;;5035933;28;20025;-76
2022/11/12 02:58:58;;;;;;;14.32;7.85;;;6.50;99.90;;;;;;5053684;28;20032;-76
2022/11/12 03:01:23;;;;;;;14.00;7.57;;;6.50;99.90;;;;;;5053590;28;20506;-76
2022/11/12 03:03:49;;;;;;;16.25;8.20;;;6.50;99.90;;;;;;5053799;28;20071;-76
2022/11/12 03:06:15;;;;;;;17.77;8.90;;;9.60;99.90;;;;;;5036808;28;20035;-76
2022/11/12 03:08:40;;;;;;;17.27;8.30;;;6.60;99.90;;;;;;5035838;28;20017;-76
2022/11/12 03:11:11;;;;;;;22.02;9.82;;;6.50;99.90;;;;;;5036726;28;20055;-76
2022/11/12 03:13:38;;;;;;;20.30;9.30;;;6.60;99.90;;;;;;5053584;28;20027;-76
2022/11/12 03:16:04;;;;;;;20.75;9.35;;;6.60;99.90;;;;;;5035904;28;20446;-76
2022/11/12 03:18:30;;;;;;;17.95;8.90;;;6.60;99.90;;;;;;5053618;28;20072;-76
2022/11/12 03:20:56;;;;;;;19.00;9.95;;;6.90;99.90;;;;;;5053455;28;20033;-76
2022/11/12 03:23:22;;;;;;;19.75;9.95;;;6.60;99.90;;;;;;5035510;28;20411;-76
2022/11/12 03:25:47;;;;;;;19.00;8.70;;;6.60;99.90;;;;;;5053952;28;20037;-76
2022/11/12 03:28:14;;;;;;;19.15;9.25;;;6.60;99.90;;;;;;5055527;28;20472;-76
2022/11/12 03:30:42;;;;;;;18.58;9.35;;;6.70;99.90;;;;;;5057288;28;20368;-76
2022/11/12 03:33:09;;;;;;;21.48;9.02;;;6.70;99.90;;;;;;5039596;28;20424;-76
2022/11/12 03:35:35;;;;;;;19.35;9.43;;;6.70;99.90;;;;;;5057160;28;20020;-76
2022/11/12 03:38:02;;;;;;;19.77;9.68;;;6.80;99.90;;;;;;5057278;28;20082;-76
2022/11/12 03:40:28;;;;;;;17.23;9.50;;;6.80;99.90;;;;;;5039230;28;20040;-76
2022/11/12 03:42:54;;;;;;;20.60;9.40;;;6.80;99.90;;;;;;5039098;28;20013;-76
2022/11/12 03:45:21;;;;;;;17.50;9.27;;;6.80;99.90;;;;;;5057180;28;20017;-76
2022/11/12 03:47:49;;;;;;;21.58;9.73;;;6.80;99.90;;;;;;5057217;28;20025;-76
2022/11/12 03:50:16;;;;;;;19.40;8.93;;;6.80;99.90;;;;;;5039061;28;20025;-76
2022/11/12 03:52:47;;;;;;;19.00;9.02;;;6.80;99.90;;;;;;5056858;28;20029;-76
2022/11/12 03:55:15;;;;;;;23.88;9.95;;;6.70;99.90;;;;;;5039038;28;20039;-76
2022/11/12 03:57:41;;;;;;;19.38;8.93;;;6.70;99.90;;;;;;5056906;28;20029;-76
2022/11/12 04:00:09;;;;;;;21.65;9.70;;;6.60;99.90;;;;;;5039301;28;20152;-76
2022/11/12 04:02:35;;;;;;;22.85;8.68;;;6.60;99.90;;;;;;5056943;28;20017;-76
2022/11/12 04:10:32;;;;;;;32.45;8.35;;;6.30;99.90;;;;;;5056656;28;20163;-76
2022/11/12 04:15:42;;;;;;;22.08;8.02;;;6.10;99.90;;;;;;5056728;28;20094;-76
2022/11/12 04:23:35;;;;;;;26.52;7.72;;;6.00;99.90;;;;;;5056390;28;20032;-76
2022/11/12 04:31:30;;;;;;;28.92;9.15;;;5.80;99.90;;;;;;5056036;28;20032;-76
2022/11/12 04:34:27;;;;;;;34.65;7.55;;;5.70;99.90;;;;;;5056001;28;20407;-76
2022/11/12 04:36:41;;;;;;;25.77;7.75;;;5.70;99.90;;;;;;5055723;28;20041;-76
2022/11/12 04:39:07;;;;;;;34.35;8.90;;;5.70;99.90;;;;;;5038041;28;20021;-76
2022/11/12 04:47:01;;;;;;;31.13;7.50;;;5.50;99.90;;;;;;5056286;28;20036;-76
2022/11/12 04:49:26;;;;;;;43.03;9.25;;;5.50;99.90;;;;;;5055675;28;20029;-76
2022/11/12 04:52:04;;;;;;;18.20;7.72;;;5.50;99.90;;;;;;5038087;28;20021;-76
2022/11/12 04:54:30;;;;;;;25.20;7.55;;;5.40;99.90;;;;;;5056175;28;20029;-76
2022/11/12 04:56:55;;;;;;;20.40;7.40;;;5.30;99.90;;;;;;5055588;28;20085;-76
2022/11/12 04:59:21;;;;;;;34.53;7.28;;;5.30;99.90;;;;;;5055460;28;20024;-76
2022/11/12 05:01:46;;;;;;;26.88;8.15;;;5.30;99.90;;;;;;5055509;28;20146;-76
2022/11/12 05:04:14;;;;;;;30.17;7.82;;;5.20;99.90;;;;;;5055519;28;20048;-76
2022/11/12 05:06:53;;;;;;;17.50;7.05;;;5.20;99.90;;;;;;5037347;28;20024;-76
2022/11/12 05:09:20;;;;;;;13.18;7.15;;;5.20;99.90;;;;;;5039574;28;20471;-76
2022/11/12 05:11:46;;;;;;;17.38;7.50;;;5.20;99.90;;;;;;5055154;28;20031;-76
2022/11/12 05:14:12;;;;;;;24.70;7.63;;;5.10;99.90;;;;;;5037185;28;20028;-76
2022/11/12 05:16:38;;;;;;;33.17;8.20;;;5.10;99.90;;;;;;5037488;28;20025;-76
2022/11/12 05:19:04;;;;;;;43.50;8.07;;;5.00;99.90;;;;;;5037350;28;20032;-76
2022/11/12 05:24:14;;;;;;;30.30;8.30;;;5.00;99.90;;;;;;5055295;28;20150;-76
2022/11/12 05:26:39;;;;;;;43.55;7.78;;;4.90;99.90;;;;;;5055802;28;20113;-76
2022/11/12 05:29:05;;;;;;;50.08;7.88;;;5.00;99.90;;;;;;5054785;28;20036;-76
2022/11/12 05:31:31;;;;;;;32.03;8.02;;;4.90;99.90;;;;;;5054802;28;20549;-76
2022/11/12 05:33:57;;;;;;;24.08;7.25;;;;;;;;;;5055369;28;20048;-76
2022/11/12 05:36:23;;;;;;;31.27;6.85;;;4.80;99.90;;;;;;5036659;28;20391;-76
2022/11/12 05:38:48;;;;;;;24.52;7.10;;;4.80;99.90;;;;;;5054811;28;20017;-76
2022/11/12 05:41:14;;;;;;;22.33;8.25;;;4.80;99.90;;;;;;5037149;28;20088;-76
2022/11/12 05:43:39;;;;;;;24.08;7.68;;;4.70;99.90;;;;;;5054738;28;20068;-76
2022/11/12 05:46:05;;;;;;;36.88;8.15;;;4.70;99.90;;;;;;5055041;28;20383;-76
2022/11/12 05:48:31;;;;;;;29.05;8.18;;;4.70;99.90;;;;;;5054514;28;20079;-76
2022/11/12 05:50:56;;;;;;;47.75;8.45;;;4.70;99.90;;;;;;5036203;28;20036;-76
2022/11/12 05:53:22;;;;;;;33.35;7.80;;;4.60;99.90;;;;;;5054390;28;20021;-76
2022/11/12 05:55:47;;;;;;;30.17;7.57;;;4.60;99.90;;;;;;5036446;28;20047;-76
2022/11/12 05:58:13;;;;;;;24.48;7.47;;;4.60;99.90;;;;;;5054498;28;20021;-76
2022/11/12 06:00:40;;;;;;;32.45;8.10;;;4.60;99.90;;;;;;5054415;28;20021;-76
2022/11/12 06:03:07;;;;;;;27.13;7.20;;;4.50;99.90;;;;;;5054408;28;20541;-76
2022/11/12 06:05:34;;;;;;;16.23;7.18;;;4.50;99.90;;;;;;5036560;28;20012;-77
2022/11/12 06:08:00;;;;;;;15.85;7.28;;;4.30;99.90;;;;;;5054418;28;20029;-76
2022/11/12 06:10:26;;;;;;;13.55;6.88;;;4.40;99.90;;;;;;5054541;28;20361;-76
2022/11/12 06:12:52;;;;;;;14.20;6.63;;;4.40;99.90;;;;;;5053953;28;20036;-76
2022/11/12 06:15:18;;;;;;;17.55;6.53;;;4.30;99.90;;;;;;5053904;28;20031;-76
2022/11/12 06:17:44;;;;;;;16.02;6.43;;;4.30;99.90;;;;;;5036133;28;20159;-75
2022/11/12 06:20:10;;;;;;;15.65;7.35;;;4.30;99.90;;;;;;5054065;28;20095;-75
2022/11/12 06:22:36;;;;;;;12.30;6.28;;;4.20;99.90;;;;;;5053918;28;20095;-76
2022/11/12 06:25:02;;;;;;;14.05;7.07;;;4.20;99.90;;;;;;5053848;28;20021;-77
2022/11/12 06:27:28;;;;;;;12.57;6.40;;;4.10;99.90;;;;;;5053737;28;20025;-76
2022/11/12 06:29:54;;;;;;;11.38;6.10;;;4.10;99.90;;;;;;5053857;28;20091;-74
2022/11/12 06:32:19;;;;;;;13.75;6.50;;;4.10;99.90;;;;;;5053551;28;20092;-75
2022/11/12 06:34:45;;;;;;;13.88;6.75;;;4.00;99.90;;;;;;5035699;28;20021;-74
2022/11/12 06:37:10;;;;;;;12.23;6.63;;;4.00;99.90;;;;;;5035650;28;20451;-75
2022/11/12 06:39:36;;;;;;;14.18;7.43;;;3.90;99.90;;;;;;5053744;28;20472;-75
2022/11/12 06:42:01;;;;;;;14.75;7.38;;;3.90;99.90;;;;;;5053571;28;20407;-75
2022/11/12 06:44:27;;;;;;;15.82;7.80;;;4.00;99.90;;;;;;5053463;28;20025;-75
2022/11/12 06:46:52;;;;;;;13.07;7.50;;;4.00;99.90;;;;;;5035640;28;20029;-75
2022/11/12 06:49:18;;;;;;;14.75;7.93;;;4.00;99.90;;;;;;5053400;28;20491;-75
2022/11/12 06:51:44;;;;;;;15.98;7.47;;;4.10;99.90;;;;;;5053436;28;20021;-75
2022/11/12 06:54:09;;;;;;;14.95;7.38;;;4.10;99.90;;;;;;5053268;28;20107;-75
2022/11/12 06:56:35;;;;;;;15.70;8.50;;;4.00;99.90;;;;;;5053610;28;20033;-75
2022/11/12 06:59:00;;;;;;;16.35;8.07;;;4.00;99.90;;;;;;5053298;28;20017;-75
2022/11/12 07:01:26;;;;;;;13.65;7.03;;;4.00;99.90;;;;;;5054253;28;20064;-75
2022/11/12 07:03:52;;;;;;;13.10;6.97;;;4.00;99.90;;;;;;5056709;28;20021;-75
2022/11/12 07:06:19;;;;;;;15.25;7.70;;;4.00;99.90;;;;;;5057376;28;20040;-75
2022/11/12 07:08:48;;;;;;;19.80;8.73;;;4.00;99.90;;;;;;5057533;28;20096;-75
2022/11/12 07:11:15;;;;;;;17.67;9.07;;;4.00;99.90;;;;;;5057512;28;20021;-75
2022/11/12 07:13:43;;;;;;;15.10;7.88;;;4.00;99.90;;;;;;5057636;28;20021;-75
2022/11/12 07:16:12;;;;;;;18.13;8.35;;;4.10;99.90;;;;;;5057139;28;20033;-75
2022/11/12 07:18:39;;;;;;;17.67;8.82;;;4.10;99.90;;;;;;5057678;28;20039;-75
2022/11/12 07:21:09;;;;;;;15.57;7.47;;;4.10;99.90;;;;;;5057162;28;20108;-74
2022/11/12 07:23:36;;;;;;;14.32;8.07;;;4.20;99.90;;;;;;5057148;28;20025;-75
2022/11/12 07:26:09;;;;;;;14.85;8.30;;;4.20;99.90;;;;;;5057221;28;20108;-75
2022/11/12 07:28:35;;;;;;;15.60;7.78;;;4.30;99.90;;;;;;5039634;28;20048;-75
2022/11/12 07:31:03;;;;;;;23.98;9.27;;;4.40;99.90;;;;;;5057092;28;20021;-75
2022/11/12 07:33:29;;;;;;;15.17;8.87;;;4.50;99.90;;;;;;5039070;28;20021;-75
2022/11/12 07:36:06;;;;;;;13.77;7.78;;;4.60;99.90;;;;;;5039250;28;20025;-75
2022/11/12 07:38:33;;;;;;;17.73;8.55;;;4.60;99.90;;;;;;5056918;28;20025;-75
2022/11/12 07:41:04;;;;;;;14.23;7.78;;;4.70;99.90;;;;;;5056639;28;20498;-75
2022/11/12 07:43:31;;;;;;;16.02;8.35;;;4.80;99.90;;;;;;5056863;28;20032;-75
2022/11/12 07:46:05;;;;;;;19.95;8.02;;;4.80;99.90;;;;;;5056634;28;20021;-75
2022/11/12 07:48:31;;;;;;;14.35;7.63;;;4.90;99.90;;;;;;5038870;28;20027;-75
2022/11/12 07:51:04;;;;;;;14.85;7.05;;;4.90;99.90;;;;;;5038752;28;20044;-75
2022/11/12 07:53:31;;;;;;;14.07;7.07;;;5.00;99.90;;;;;;5039053;28;20025;-75
2022/11/12 07:55:59;;;;;;;16.10;6.70;;;5.10;99.90;;;;;;5056632;28;20047;-75
2022/11/12 07:58:26;;;;;;;13.68;6.97;;;5.10;99.90;;;;;;5057531;28;20464;-75
2022/11/12 08:00:52;;;;;;;14.82;7.45;;;5.30;99.90;;;;;;5056674;28;20022;-75
2022/11/12 08:03:19;;;;;;;16.77;7.90;;;5.30;99.90;;;;;;5057109;28;20033;-75
2022/11/12 08:05:44;;;;;;;13.30;6.53;;;5.40;99.90;;;;;;5056846;28;20021;-75
2022/11/12 08:08:11;;;;;;;14.82;7.53;;;5.40;99.90;;;;;;5038710;28;20032;-75
2022/11/12 08:10:38;;;;;;;15.10;6.88;;;5.50;99.90;;;;;;5038723;28;20017;-75
2022/11/12 08:13:07;;;;;;;13.32;6.65;;;5.60;99.90;;;;;;5056141;28;20100;-75
2022/11/12 08:15:32;;;;;;;;;;;5.70;99.90;;;;;;5057197;28;20029;-76
2022/11/12 08:17:58;;;;;;;14.73;6.57;;;5.80;99.90;;;;;;5056988;28;20015;-75
2022/11/12 08:20:24;;;;;;;14.10;6.25;;;5.90;99.90;;;;;;5038588;28;20419;-76
2022/11/12 08:22:49;;;;;;;15.75;7.32;;;6.00;99.90;;;;;;5038971;28;20033;-76
2022/11/12 08:25:21;;;;;;;12.15;5.95;;;6.20;99.90;;;;;;5056772;28;20434;-76
2022/11/12 08:27:46;;;;;;;13.32;6.60;;;6.80;99.90;;;;;;5056489;28;20056;-76
2022/11/12 08:30:15;;;;;;;14.98;7.28;;;7.00;99.90;;;;;;5038945;28;20376;-76
2022/11/12 08:32:40;;;;;;;15.98;7.05;;;6.50;99.90;;;;;;5056377;28;20025;-76
2022/11/12 08:35:06;;;;;;;12.20;6.97;;;6.50;99.90;;;;;;5038169;28;20017;-77
2022/11/12 08:37:32;;;;;;;15.23;6.88;;;;;;;;;;5038456;28;20028;-76
2022/11/12 08:39:59;;;;;;;15.57;6.75;;;6.60;99.90;;;;;;5038498;28;20036;-76
2022/11/12 08:42:25;;;;;;;12.60;6.85;;;6.80;99.90;;;;;;5056507;28;20116;-76
2022/11/12 08:44:51;;;;;;;10.90;5.72;;;6.80;99.90;;;;;;5037785;28;20032;-76
2022/11/12 08:47:16;;;;;;;17.50;7.57;;;7.00;99.90;;;;;;5037489;28;20416;-76
2022/11/12 08:49:42;;;;;;;14.27;7.53;;;7.00;99.90;;;;;;5037798;28;20075;-76
2022/11/12 08:52:07;;;;;;;10.90;6.00;;;7.20;99.90;;;;;;5037836;28;20025;-76
2022/11/12 08:54:33;;;;;;;11.80;5.63;;;7.20;99.90;;;;;;5037646;28;20013;-76
2022/11/12 08:57:06;;;;;;;11.23;5.68;;;7.40;99.90;;;;;;5056159;28;20111;-76
2022/11/12 08:59:31;;;;;;;15.80;5.32;;;7.30;99.90;;;;;;5055474;28;20031;-76
2022/11/12 09:01:59;;;;;;;11.38;6.03;;;7.50;99.90;;;;;;5055551;28;20025;-76
2022/11/12 09:04:25;;;;;;;13.35;5.60;;;7.70;99.90;;;;;;5055451;28;20024;-76
2022/11/12 09:06:51;;;;;;;9.27;5.72;;;7.60;99.90;;;;;;5055442;28;20104;-77
2022/11/12 09:09:19;;;;;;;12.23;5.28;;;7.80;99.90;;;;;;5037474;28;20047;-76
2022/11/12 09:11:45;;;;;;;10.95;4.68;;;7.90;99.90;;;;;;5055250;28;20132;-76
2022/11/12 09:14:10;;;;;;;8.20;4.45;;;8.00;99.90;;;;;;5037927;28;20475;-76
2022/11/12 09:16:36;;;;;;;12.73;6.07;;;8.00;99.90;;;;;;5038571;28;20361;-76
2022/11/12 09:19:03;;;;;;;10.98;5.22;;;;;;;;;;5042678;28;20096;-78
2022/11/12 09:21:29;;;;;;;14.50;5.45;;;8.20;99.90;;;;;;5062826;28;20032;-76
2022/11/12 09:23:56;;;;;;;11.32;5.00;;;;;;;;;;5055650;28;20083;-76
2022/11/12 09:26:22;;;;;;;10.15;5.20;;;8.40;99.90;;;;;;5035735;28;20426;-76
2022/11/12 09:28:47;;;;;;;10.07;4.70;;;8.60;99.90;;;;;;5054406;28;20035;-76
2022/11/12 09:31:16;;;;;;;13.07;5.78;;;8.70;99.90;;;;;;5036519;28;20056;-76
2022/11/12 09:33:41;;;;;;;8.52;4.38;;;8.90;99.90;;;;;;5054365;28;20387;-77
2022/11/12 09:36:07;;;;;;;10.60;4.90;;;8.90;99.90;;;;;;5054114;28;20024;-76
2022/11/12 09:38:33;;;;;;;10.57;4.40;;;9.00;99.90;;;;;;5054550;28;20025;-76
2022/11/12 09:41:23;;;;;;;7.18;4.78;;;9.10;99.90;;;;;;5036182;28;20031;-75
2022/11/12 09:43:50;;;;;;;9.48;5.63;;;9.10;99.90;;;;;;5054002;28;20059;-74
2022/11/12 09:46:35;;;;;;;9.20;4.00;;;9.20;99.90;;;;;;5035962;28;20373;-73
2022/11/12 09:49:11;;;;;;;7.50;4.45;;;9.30;99.90;;;;;;5036024;28;20031;-74
2022/11/12 09:51:46;;;;;;;9.43;4.22;;;9.40;99.90;;;;;;5035926;28;20028;-75
2022/11/12 09:54:20;;;;;;;10.80;5.25;;;9.40;99.90;;;;;;5053939;28;20476;-74
2022/11/12 09:56:52;;;;;;;9.05;4.95;;;9.40;99.90;;;;;;5053716;28;20060;-74
2022/11/12 09:59:19;;;;;;;7.00;4.57;;;9.60;99.90;;;;;;5035922;28;20067;-74
2022/11/12 10:01:56;;;;;;;9.75;4.63;;;9.70;99.90;;;;;;5035634;28;20036;-74
2022/11/12 10:04:49;;;;;;;11.10;4.50;;;9.70;99.90;;;;;;5053483;28;20500;-75
2022/11/12 10:07:22;;;;;;;7.38;4.53;;;10.00;99.90;;;;;;5053725;28;20033;-75
2022/11/12 10:09:58;;;;;;;9.75;4.25;;;10.00;99.90;;;;;;5053522;28;20043;-75
2022/11/12 10:12:39;;;;;;;8.30;3.90;;;10.20;99.90;;;;;;5035631;28;20067;-75
2022/11/12 10:18:26;;;;;;;7.95;4.28;;;10.20;99.90;;;;;;5053702;28;20523;-75
2022/11/12 10:20:57;;;;;;;7.05;3.67;;;10.50;99.90;;;;;;5053419;28;20029;-75
2022/11/12 10:23:46;;;;;;;7.63;3.70;;;10.50;99.90;;;;;;5035428;28;20120;-75
2022/11/12 10:26:17;;;;;;;9.30;4.15;;;10.70;99.90;;;;;;5053062;28;20416;-75
2022/11/12 10:28:48;;;;;;;8.35;4.00;;;10.80;99.90;;;;;;5053308;28;20031;-73
2022/11/12 10:31:17;;;;;;;11.40;3.78;;;10.90;99.90;;;;;;5053738;28;20029;-76
2022/11/12 10:33:42;;;;;;;6.75;4.30;;;11.10;99.90;;;;;;5052866;28;20083;-76
2022/11/12 10:36:26;;;;;;;7.22;3.47;;;11.10;99.90;;;;;;5053116;28;20041;-76
2022/11/12 10:38:53;;;;;;;10.85;3.03;;;11.20;99.90;;;;;;5053632;28;20032;-76
2022/11/12 10:41:33;;;;;;;7.35;3.45;;;11.30;99.90;;;;;;5035636;28;20029;-75
2022/11/12 10:44:02;;;;;;;6.85;3.65;;;11.50;99.90;;;;;;5053421;28;20040;-76
2022/11/12 10:46:31;;;;;;;6.93;3.25;;;11.60;99.90;;;;;;5035190;28;20032;-76
2022/11/12 10:49:00;;;;;;;9.38;2.80;;;11.60;99.90;;;;;;5035167;28;20108;-76
2022/11/12 10:51:37;;;;;;;6.22;2.70;;;11.70;99.90;;;;;;5035013;28;20483;-76
2022/11/12 10:54:26;;;;;;;9.98;3.90;;;11.70;99.90;;;;;;5052801;28;20025;-76
2022/11/12 10:56:53;;;;;;;8.20;3.60;;;11.80;99.90;;;;;;5052854;28;20029;-76
2022/11/12 10:59:25;;;;;;;9.50;3.30;;;11.90;99.90;;;;;;5052925;28;20032;-76
2022/11/12 11:01:59;;;;;;;6.90;2.55;;;11.90;99.90;;;;;;5034945;28;20124;-76
2022/11/12 11:04:35;;;;;;;6.28;3.60;;;12.00;99.90;;;;;;5034956;28;20032;-76
2022/11/12 11:07:23;;;;;;;8.90;3.63;;;12.10;99.90;;;;;;5035007;28;20060;-75
2022/11/12 11:09:58;;;;;;;5.82;2.97;;;12.30;99.90;;;;;;5034948;28;20151;-75
2022/11/12 11:12:33;;;;;;;5.50;3.10;;;12.40;99.90;;;;;;5035089;28;20569;-77
2022/11/12 11:15:21;;;;;;;6.00;2.90;;;12.50;99.90;;;;;;5052653;28;20021;-75
2022/11/12 11:17:47;;;;;;;6.32;2.75;;;12.70;99.90;;;;;;5052983;28;20095;-75
2022/11/12 11:20:37;;;;;;;5.28;3.17;;;12.80;99.90;;;;;;5052741;28;20476;-76
2022/11/12 11:23:16;;;;;;;5.88;2.85;;;12.80;99.90;;;;;;5053144;28;20021;-75
2022/11/12 11:25:50;;;;;;;7.38;3.30;;;12.90;99.90;;;;;;5034816;28;20449;-76
2022/11/12 11:28:43;;;;;;;5.60;3.03;;;13.20;99.90;;;;;;5052728;28;20081;-76
2022/11/12 11:31:42;;;;;;;5.80;3.30;;;13.20;99.90;;;;;;5052749;28;20479;-76
2022/11/12 11:34:27;;;;;;;5.63;3.20;;;13.50;99.90;;;;;;5052519;28;20056;-74
2022/11/12 11:37:06;;;;;;;5.97;3.65;;;13.50;99.90;;;;;;5052424;28;20438;-76
2022/11/12 11:39:43;;;;;;;6.78;3.08;;;13.80;99.90;;;;;;5052667;28;20021;-76
2022/11/12 11:42:27;;;;;;;8.00;3.53;;;13.80;99.90;;;;;;5053031;28;20033;-76
2022/11/12 11:45:24;;;;;;;6.03;3.42;;;14.00;99.90;;;;;;5034585;28;20067;-76
2022/11/12 11:48:02;;;;;;;4.60;2.92;;;14.10;99.90;;;;;;5034622;28;20040;-76
2022/11/12 11:50:41;;;;;;;5.20;3.30;;;14.20;99.90;;;;;;5038416;28;20079;-76
2022/11/12 11:53:25;;;;;;;7.75;3.55;;;14.40;99.90;;;;;;5056596;28;20079;-76
2022/11/12 11:56:00;;;;;;;8.40;3.72;;;14.40;99.90;;;;;;5055973;28;20514;-76
2022/11/12 11:58:26;;;;;;;4.57;3.03;;;;;;;;;;5056724;28;20479;-76
2022/11/12 12:01:09;;;;;;;6.43;4.07;;;14.70;99.90;;;;;;5056084;28;20029;-76
2022/11/12 12:03:53;;;;;;;5.82;3.38;;;14.90;99.90;;;;;;5056356;28;20033;-76
2022/11/12 12:06:33;;;;;;;9.13;3.08;;;15.00;99.90;;;;;;5037994;28;20079;-76
2022/11/12 12:09:27;;;;;;;8.50;3.42;;;15.00;99.90;;;;;;5037880;28;20135;-76
2022/11/12 12:11:58;;;;;;;4.82;2.80;;;15.10;99.90;;;;;;5055713;28;20028;-75
2022/11/12 12:15:27;;;;;;;7.15;3.60;;;15.20;99.90;;;;;;5038539;28;20051;-77
2022/11/12 12:18:28;;;;;;;8.18;3.55;;;15.20;99.90;;;;;;4971038;28;20030;-76
2022/11/12 12:21:00;;;;;;;6.18;3.45;;;15.50;99.90;;;;;;5023243;28;20116;-77
2022/11/12 12:23:37;;;;;;;10.23;3.55;;;15.60;99.90;;;;;;5037532;28;20112;-77
2022/11/12 12:26:13;;;;;;;7.65;3.35;;;15.60;99.90;;;;;;5037799;28;20432;-75
2022/11/12 12:28:49;;;;;;;7.38;3.58;;;15.80;99.90;;;;;;5037752;28;20053;-76
2022/11/12 12:31:31;;;;;;;5.93;2.55;;;15.70;99.90;;;;;;5021883;28;20031;-76
2022/11/12 12:34:10;;;;;;;6.40;2.67;;;16.00;99.90;;;;;;5055456;28;20024;-76
2022/11/12 12:36:39;;;;;;;3.78;2.30;;;16.10;99.90;;;;;;5037672;28;20032;-77
2022/11/12 12:39:24;;;;;;;5.15;2.65;;;16.20;99.90;;;;;;5055149;28;20032;-77
2022/11/12 12:42:24;;;;;;;5.90;2.72;;;16.40;99.90;;;;;;5055850;28;20388;-76
2022/11/12 12:45:00;;;;;;;5.03;2.33;;;16.50;99.90;;;;;;5044376;28;20377;-77
2022/11/12 12:47:34;;;;;;;5.32;2.90;;;17.10;99.90;;;;;;5055229;28;20364;-77
2022/11/12 12:50:06;;;;;;;4.85;2.45;;;16.60;99.90;;;;;;5037229;28;20162;-77
2022/11/12 12:53:01;;;;;;;4.55;2.78;;;16.70;99.90;;;;;;5055568;28;20491;-76
2022/11/12 12:55:37;;;;;;;5.65;2.47;;;16.90;99.90;;;;;;5037166;28;20032;-76
2022/11/12 12:58:02;;;;;;;2.72;1.90;;;17.00;99.90;;;;;;5055514;28;20036;-77
2022/11/12 13:00:54;;;;;;;4.25;2.17;;;17.10;99.90;;;;;;5036202;28;20387;-77
2022/11/12 13:03:42;;;;;;;5.85;2.08;;;17.30;99.90;;;;;;5037788;28;20033;-77
2022/11/12 13:06:24;;;;;;;4.70;2.10;;;17.50;99.90;;;;;;5055852;28;20029;-77
2022/11/12 13:09:02;;;;;;;3.20;1.63;;;17.70;99.90;;;;;;5055620;28;20453;-77
2022/11/12 13:14:33;;;;;;;3.40;1.92;;;18.00;99.90;;;;;;5055833;28;20040;-77
2022/11/12 13:16:59;;;;;;;3.40;1.95;;;18.10;99.90;;;;;;5037373;28;20475;-77
2022/11/12 13:19:49;;;;;;;3.40;1.40;;;18.10;99.90;;;;;;5055331;28;20032;-77
2022/11/12 13:22:22;;;;;;;4.05;1.15;;;18.30;99.90;;;;;;5040558;28;20041;-77
2022/11/12 13:25:15;;;;;;;2.53;0.95;;;18.40;99.90;;;;;;5055064;28;20443;-77
2022/11/12 13:27:44;;;;;;;2.47;0.95;;;18.60;99.90;;;;;;5038059;28;20037;-77
2022/11/12 13:30:10;;;;;;;;;;;18.80;99.90;;;;;;5055307;28;20021;-77
2022/11/12 13:32:48;;;;;;;2.80;1.38;;;19.00;99.90;;;;;;5037017;28;20367;-77
2022/11/12 13:35:34;;;;;;;3.00;0.93;;;19.20;99.90;;;;;;5055352;28;20055;-77
2022/11/12 13:38:14;;;;;;;1.65;0.65;;;19.50;99.90;;;;;;5037120;28;20021;-77
2022/11/12 13:41:08;;;;;;;3.78;0.90;;;19.80;99.90;;;;;;5055300;28;20128;-77
2022/11/12 13:43:43;;;;;;;2.00;0.35;;;20.00;99.90;;;;;;5036822;28;20025;-77